Time;durP1;ratioP1;P1;durP2;ratioP2;P2;SDS_P1;SDS_P2;PMS_P1;PMS_P2;Temp;Humidity;BMP_temperature;BMP_pressure;BME280_temperature;BME280_humidity;BME280_pressure;Samples;Min_cycle;Max_cycle;Signal;HPM_P1;HPM_P2
2023/09/23 00:00:34;;;;;;;7.07;6.47;;;12.80;99.90;;;;;;5082837;28;20559;-59
2023/09/23 00:03:02;;;;;;;6.90;6.40;;;12.80;99.90;;;;;;5080715;28;20496;-59
2023/09/23 00:05:33;;;;;;;7.50;6.90;;;12.80;99.90;;;;;;5081565;28;20487;-57
2023/09/23 00:08:01;;;;;;;6.97;6.33;;;12.80;99.90;;;;;;5081069;28;20478;-59
2023/09/23 00:10:31;;;;;;;7.50;6.90;;;12.80;99.90;;;;;;5079712;28;20537;-59
2023/09/23 00:13:00;;;;;;;6.90;6.40;;;12.80;99.90;;;;;;5075699;28;20506;-59
2023/09/23 00:15:28;;;;;;;7.30;6.60;;;12.80;99.90;;;;;;5081415;28;20989;-59
2023/09/23 00:17:57;;;;;;;7.47;6.70;;;12.80;99.90;;;;;;5079747;28;20469;-59
2023/09/23 00:20:27;;;;;;;7.57;6.97;;;12.80;99.90;;;;;;5079472;28;20976;-59
2023/09/23 00:22:56;;;;;;;7.00;6.50;;;12.80;99.90;;;;;;5078406;28;20534;-59
2023/09/23 00:25:24;;;;;;;8.10;7.30;;;12.90;99.90;;;;;;5077074;28;20860;-59
2023/09/23 00:27:54;;;;;;;6.90;6.30;;;12.80;99.90;;;;;;5080879;28;20484;-58
2023/09/23 00:30:26;;;;;;;7.37;6.77;;;12.90;99.90;;;;;;5081925;28;20473;-58
2023/09/23 00:32:54;;;;;;;7.10;6.50;;;12.90;99.90;;;;;;5075940;28;20486;-59
2023/09/23 00:35:23;;;;;;;7.30;6.80;;;12.90;99.90;;;;;;5077382;28;20995;-59
2023/09/23 00:37:51;;;;;;;7.50;6.80;;;12.90;99.90;;;;;;5078544;28;20545;-58
2023/09/23 00:40:27;;;;;;;7.07;6.57;;;12.90;99.90;;;;;;5076476;28;20508;-59
2023/09/23 00:42:57;;;;;;;7.20;6.60;;;12.90;99.90;;;;;;5079451;28;20572;-59
2023/09/23 00:45:29;;;;;;;8.50;7.80;;;12.90;99.90;;;;;;5079253;28;20461;-59
2023/09/23 00:47:57;;;;;;;7.03;6.53;;;12.90;99.90;;;;;;5080786;28;20665;-59
2023/09/23 00:50:25;;;;;;;7.60;7.00;;;13.00;99.90;;;;;;5079139;28;20577;-59
2023/09/23 00:52:54;;;;;;;7.50;6.90;;;13.00;99.90;;;;;;5081546;28;20912;-58
2023/09/23 00:55:24;;;;;;;6.93;6.33;;;13.00;99.90;;;;;;5072997;28;20612;-59
2023/09/23 00:57:54;;;;;;;8.70;7.90;;;13.00;99.90;;;;;;5077694;28;20496;-59
2023/09/23 01:00:25;;;;;;;7.57;7.07;;;13.10;99.90;;;;;;5077278;28;20556;-59
2023/09/23 01:02:55;;;;;;;7.80;7.20;;;13.10;99.90;;;;;;5071368;28;20577;-59
2023/09/23 01:05:27;;;;;;;7.40;6.80;;;13.10;99.90;;;;;;5078844;28;20521;-59
2023/09/23 01:07:56;;;;;;;8.27;7.67;;;13.10;99.90;;;;;;5079929;28;20465;-58
2023/09/23 01:10:25;;;;;;;8.50;7.80;;;13.20;99.90;;;;;;5079030;28;20538;-59
2023/09/23 01:12:53;;;;;;;7.77;7.17;;;13.20;99.90;;;;;;5076661;28;21021;-59
2023/09/23 01:15:25;;;;;;;8.47;7.77;;;13.30;99.90;;;;;;5079433;28;20571;-59
2023/09/23 01:17:55;;;;;;;7.80;7.20;;;13.30;99.90;;;;;;5074533;28;20492;-57
2023/09/23 01:20:23;;;;;;;7.43;6.77;;;13.40;99.90;;;;;;5078909;28;20525;-58
2023/09/23 01:22:52;;;;;;;7.70;7.10;;;13.40;99.90;;;;;;5078698;28;20477;-59
2023/09/23 01:25:21;;;;;;;9.00;7.50;;;13.40;99.90;;;;;;5079790;28;20954;-59
2023/09/23 01:27:49;;;;;;;8.33;7.57;;;13.40;99.90;;;;;;5078743;28;20797;-59
2023/09/23 01:30:20;;;;;;;7.63;6.90;;;13.40;99.90;;;;;;5074741;28;20804;-59
2023/09/23 01:32:50;;;;;;;8.10;7.50;;;13.40;99.90;;;;;;5078992;28;20549;-58
2023/09/23 01:35:20;;;;;;;7.67;7.07;;;13.50;99.90;;;;;;5078777;28;20955;-59
2023/09/23 01:37:50;;;;;;;8.43;7.73;;;13.40;99.90;;;;;;5078055;28;20514;-57
2023/09/23 01:40:19;;;;;;;8.10;7.40;;;13.50;99.90;;;;;;5075730;28;20934;-59
2023/09/23 01:42:49;;;;;;;7.90;7.30;;;13.50;99.90;;;;;;5079047;28;20543;-59
2023/09/23 01:45:19;;;;;;;7.63;7.03;;;13.50;99.90;;;;;;5077140;28;20781;-59
2023/09/23 01:47:47;;;;;;;8.37;7.57;;;13.50;99.90;;;;;;5074847;28;20662;-59
2023/09/23 01:50:17;;;;;;;7.60;6.93;;;13.50;99.90;;;;;;5080278;28;20482;-58
2023/09/23 01:52:46;;;;;;;7.20;6.60;;;13.50;99.90;;;;;;5078655;28;20876;-59
2023/09/23 01:55:16;;;;;;;8.00;7.30;;;13.50;99.90;;;;;;5076867;28;20510;-59
2023/09/23 01:57:47;;;;;;;7.87;7.30;;;13.50;99.90;;;;;;5077795;28;20484;-59
2023/09/23 02:00:21;;;;;;;7.90;7.20;;;13.50;99.90;;;;;;5076736;28;20555;-58
2023/09/23 02:02:53;;;;;;;7.30;6.70;;;13.50;99.90;;;;;;5076872;28;20488;-59
2023/09/23 02:05:24;;;;;;;8.73;7.93;;;13.50;99.90;;;;;;5078547;28;20473;-59
2023/09/23 02:07:53;;;;;;;7.90;7.30;;;13.50;99.90;;;;;;5079382;28;21209;-59
2023/09/23 02:10:24;;;;;;;7.90;7.30;;;13.40;99.90;;;;;;5076776;28;20473;-59
2023/09/23 02:12:53;;;;;;;8.30;7.60;;;13.40;99.90;;;;;;5075287;28;20496;-58
2023/09/23 02:15:22;;;;;;;7.93;7.33;;;13.50;99.90;;;;;;5077727;28;20484;-58
2023/09/23 02:17:50;;;;;;;7.83;7.23;;;13.50;99.90;;;;;;5078807;28;20534;-59
2023/09/23 02:20:22;;;;;;;8.43;7.70;;;13.40;99.90;;;;;;5078625;28;20464;-59
2023/09/23 02:22:53;;;;;;;9.00;7.80;;;13.50;99.90;;;;;;5081084;28;20942;-59
2023/09/23 02:25:24;;;;;;;9.27;8.40;;;13.50;99.90;;;;;;5078005;28;20487;-59
2023/09/23 02:27:55;;;;;;;8.70;7.97;;;13.50;99.90;;;;;;5076277;28;20603;-59
2023/09/23 02:30:24;;;;;;;8.33;7.63;;;13.50;99.90;;;;;;5077275;28;20495;-59
2023/09/23 02:32:53;;;;;;;8.73;8.03;;;13.40;99.90;;;;;;5077970;28;20484;-58
2023/09/23 02:35:22;;;;;;;7.97;7.27;;;13.40;99.90;;;;;;5079378;28;20552;-58
2023/09/23 02:37:50;;;;;;;8.63;7.93;;;13.30;99.90;;;;;;5075077;28;21026;-59
2023/09/23 02:40:20;;;;;;;8.80;8.10;;;13.40;99.90;;;;;;5078100;28;20468;-59
2023/09/23 02:42:53;;;;;;;10.03;8.97;;;13.40;99.90;;;;;;5078621;28;20482;-59
2023/09/23 02:45:23;;;;;;;9.77;8.87;;;13.40;99.90;;;;;;5074703;28;20499;-59
2023/09/23 02:47:52;;;;;;;9.10;8.40;;;13.40;99.90;;;;;;5077110;28;20557;-59
2023/09/23 02:50:20;;;;;;;10.43;9.53;;;13.40;99.90;;;;;;5075993;28;20473;-58
2023/09/23 02:52:49;;;;;;;9.97;9.07;;;13.40;99.90;;;;;;5078271;28;20491;-59
2023/09/23 02:55:19;;;;;;;9.80;9.00;;;13.40;99.90;;;;;;5076024;28;20471;-58
2023/09/23 02:57:49;;;;;;;10.70;9.70;;;13.50;99.90;;;;;;5077411;28;21059;-59
2023/09/23 03:00:22;;;;;;;10.73;9.77;;;13.40;99.90;;;;;;5073901;28;21040;-57
2023/09/23 03:02:55;;;;;;;10.30;9.47;;;13.50;99.90;;;;;;5076740;28;20554;-58
2023/09/23 03:05:28;;;;;;;11.03;10.00;;;13.40;99.90;;;;;;5078049;28;20483;-59
2023/09/23 03:07:58;;;;;;;11.07;10.07;;;13.40;99.90;;;;;;5077662;28;20597;-58
2023/09/23 03:10:34;;;;;;;11.03;10.03;;;13.40;99.90;;;;;;5074870;28;20473;-59
2023/09/23 03:13:07;;;;;;;10.27;9.37;;;13.40;99.90;;;;;;5077574;28;20484;-58
2023/09/23 03:15:44;;;;;;;11.40;10.50;;;13.40;99.90;;;;;;5076805;28;20955;-59
2023/09/23 03:18:15;;;;;;;10.90;9.90;;;13.40;99.90;;;;;;5079642;28;20472;-59
2023/09/23 03:20:44;;;;;;;11.33;10.13;;;13.40;99.90;;;;;;5079106;28;20963;-59
2023/09/23 03:23:12;;;;;;;12.60;11.50;;;13.50;99.90;;;;;;5077342;28;20563;-59
2023/09/23 03:25:47;;;;;;;11.30;10.30;;;13.50;99.90;;;;;;5076431;28;20480;-59
2023/09/23 03:28:16;;;;;;;11.93;10.93;;;13.50;99.90;;;;;;5071343;28;20624;-58
2023/09/23 03:30:47;;;;;;;11.80;10.70;;;13.50;99.90;;;;;;5078585;28;20469;-59
2023/09/23 03:33:18;;;;;;;12.67;11.37;;;13.50;99.90;;;;;;5079448;28;20483;-58
2023/09/23 03:35:47;;;;;;;12.67;11.47;;;13.50;99.90;;;;;;5083387;28;20981;-59
2023/09/23 03:38:16;;;;;;;13.07;11.87;;;13.50;99.90;;;;;;5078100;28;20477;-58
2023/09/23 03:40:51;;;;;;;12.47;11.37;;;13.50;99.90;;;;;;5080015;28;20548;-59
2023/09/23 03:43:19;;;;;;;11.83;10.73;;;13.60;99.90;;;;;;5079858;28;20856;-59
2023/09/23 03:45:47;;;;;;;12.33;11.13;;;13.60;99.90;;;;;;5078947;28;20555;-58
2023/09/23 03:48:17;;;;;;;12.77;11.47;;;13.60;99.90;;;;;;5079083;28;20565;-58
2023/09/23 03:50:45;;;;;;;14.00;12.70;;;13.60;99.90;;;;;;5080556;28;20615;-59
2023/09/23 03:53:13;;;;;;;14.40;13.00;;;13.60;99.90;;;;;;5079838;28;20878;-59
2023/09/23 03:55:41;;;;;;;12.40;11.20;;;13.60;99.90;;;;;;5075506;28;20472;-59
2023/09/23 03:58:10;;;;;;;13.67;12.20;;;13.60;99.90;;;;;;5073815;28;21118;-58
2023/09/23 04:00:38;;;;;;;14.23;12.57;;;13.60;99.90;;;;;;5077917;28;20472;-59
2023/09/23 04:03:06;;;;;;;15.00;13.60;;;13.60;99.90;;;;;;5077898;28;20492;-58
2023/09/23 04:05:35;;;;;;;13.23;12.03;;;13.60;99.90;;;;;;5078339;28;20487;-59
2023/09/23 04:08:04;;;;;;;14.57;13.13;;;13.60;99.90;;;;;;5081780;28;20490;-59
2023/09/23 04:10:32;;;;;;;13.43;12.20;;;13.60;99.90;;;;;;5083458;28;20460;-59
2023/09/23 04:13:00;;;;;;;13.87;12.47;;;13.60;99.90;;;;;;5081634;28;20608;-58
2023/09/23 04:15:28;;;;;;;15.20;13.60;;;13.60;99.90;;;;;;5077270;28;20507;-59
2023/09/23 04:17:56;;;;;;;14.73;13.23;;;13.60;99.90;;;;;;5066530;28;20554;-58
2023/09/23 04:20:24;;;;;;;14.93;13.50;;;13.60;99.90;;;;;;5062818;28;20464;-59
2023/09/23 04:22:53;;;;;;;15.67;14.20;;;13.50;99.90;;;;;;5070258;28;20476;-59
2023/09/23 04:25:21;;;;;;;14.83;13.43;;;13.50;99.90;;;;;;5065451;28;21110;-59
2023/09/23 04:27:50;;;;;;;15.80;14.40;;;13.60;99.90;;;;;;5073137;28;20492;-58
2023/09/23 04:30:19;;;;;;;14.53;13.23;;;13.60;99.90;;;;;;5082897;28;20488;-59
2023/09/23 04:32:47;;;;;;;14.20;12.90;;;13.60;99.90;;;;;;5081487;28;20516;-58
2023/09/23 04:35:15;;;;;;;14.63;13.20;;;13.60;99.90;;;;;;5081878;28;20823;-58
2023/09/23 04:37:44;;;;;;;15.30;13.83;;;13.60;99.90;;;;;;5077310;28;20553;-59
2023/09/23 04:40:15;;;;;;;18.60;16.80;;;13.70;99.90;;;;;;5076224;28;20473;-60
2023/09/23 04:42:44;;;;;;;15.73;14.23;;;13.70;99.90;;;;;;5078941;28;20515;-58
2023/09/23 04:45:12;;;;;;;16.73;15.23;;;13.70;99.90;;;;;;5076991;28;20461;-59
2023/09/23 04:47:41;;;;;;;17.03;15.47;;;13.70;99.90;;;;;;5076441;28;20490;-60
2023/09/23 04:50:12;;;;;;;16.30;14.90;;;13.70;99.90;;;;;;5077460;28;20484;-60
2023/09/23 04:52:42;;;;;;;16.50;14.80;;;13.70;99.90;;;;;;5077413;28;22757;-60
2023/09/23 04:55:11;;;;;;;17.03;15.43;;;13.70;99.90;;;;;;5078023;28;20574;-59
2023/09/23 04:57:40;;;;;;;15.87;14.37;;;13.70;99.90;;;;;;5078647;28;21169;-60
2023/09/23 05:00:10;;;;;;;16.80;15.30;;;13.70;99.90;;;;;;5082790;28;20473;-60
2023/09/23 05:02:40;;;;;;;16.53;14.93;;;13.70;99.90;;;;;;5080899;28;20488;-60
2023/09/23 05:05:09;;;;;;;18.07;16.40;;;13.70;99.90;;;;;;5080069;28;20480;-60
2023/09/23 05:07:38;;;;;;;17.43;15.73;;;13.70;99.90;;;;;;5079275;28;20572;-60
2023/09/23 05:10:07;;;;;;;17.83;16.13;;;13.60;99.90;;;;;;5077485;28;20552;-60
2023/09/23 05:12:35;;;;;;;18.10;16.40;;;13.60;99.90;;;;;;5078898;28;20484;-60
2023/09/23 05:15:07;;;;;;;18.70;16.70;;;13.60;99.90;;;;;;5079507;28;20484;-60
2023/09/23 05:17:35;;;;;;;18.93;17.13;;;13.60;99.90;;;;;;5075332;28;20500;-58
2023/09/23 05:20:11;;;;;;;17.97;15.97;;;13.50;99.90;;;;;;5074884;28;20937;-59
2023/09/23 05:22:39;;;;;;;16.57;15.03;;;13.60;99.90;;;;;;5082078;28;20484;-59
2023/09/23 05:25:11;;;;;;;17.43;15.80;;;13.60;99.90;;;;;;5079787;28;20545;-59
2023/09/23 05:27:39;;;;;;;17.83;16.10;;;13.60;99.90;;;;;;5077759;28;21091;-59
2023/09/23 05:30:11;;;;;;;18.67;16.87;;;13.60;99.90;;;;;;5070734;28;21139;-59
2023/09/23 05:32:39;;;;;;;17.60;15.90;;;13.60;99.90;;;;;;5077122;28;20476;-59
2023/09/23 05:35:10;;;;;;;17.17;15.47;;;13.60;99.90;;;;;;5073778;28;20542;-59
2023/09/23 05:37:39;;;;;;;17.40;15.63;;;13.60;99.90;;;;;;5071408;28;20589;-60
2023/09/23 05:40:15;;;;;;;18.33;16.53;;;13.60;99.90;;;;;;5075411;28;21125;-59
2023/09/23 05:42:45;;;;;;;16.93;15.10;;;13.70;99.90;;;;;;5076646;28;20587;-59
2023/09/23 05:45:15;;;;;;;16.60;15.10;;;13.70;99.90;;;;;;5079393;28;20473;-59
2023/09/23 05:47:45;;;;;;;16.13;14.53;;;13.60;99.90;;;;;;5079068;28;21109;-59
2023/09/23 05:50:16;;;;;;;17.83;16.13;;;13.60;99.90;;;;;;5077656;28;20998;-58
2023/09/23 05:52:45;;;;;;;16.63;15.10;;;13.50;99.90;;;;;;5078578;28;20484;-59
2023/09/23 05:55:14;;;;;;;16.50;14.80;;;13.50;99.90;;;;;;5073676;28;20484;-59
2023/09/23 05:57:42;;;;;;;17.00;15.40;;;13.50;99.90;;;;;;5078159;28;20495;-59
2023/09/23 06:00:15;;;;;;;17.50;15.87;;;13.60;99.90;;;;;;5077494;28;20476;-65
2023/09/23 06:02:45;;;;;;;16.10;14.50;;;13.50;99.90;;;;;;5080325;28;20485;-65
2023/09/23 06:05:14;;;;;;;18.07;16.30;;;13.60;99.90;;;;;;5080174;28;20480;-65
2023/09/23 06:07:42;;;;;;;17.47;15.77;;;13.60;99.90;;;;;;5076109;28;20921;-63
2023/09/23 06:10:11;;;;;;;17.63;15.90;;;13.60;99.90;;;;;;5080320;28;20503;-64
2023/09/23 06:12:39;;;;;;;16.73;15.13;;;13.60;99.90;;;;;;5070993;28;20557;-64
2023/09/23 06:15:09;;;;;;;19.03;16.93;;;13.60;99.90;;;;;;5074232;28;20754;-63
2023/09/23 06:17:38;;;;;;;18.17;16.37;;;13.60;99.90;;;;;;5073556;28;20591;-64
2023/09/23 06:20:09;;;;;;;17.10;15.40;;;13.60;99.90;;;;;;5075214;28;20468;-59
2023/09/23 06:22:37;;;;;;;16.03;14.37;;;13.60;99.90;;;;;;5074484;28;20497;-59
2023/09/23 06:25:06;;;;;;;17.47;15.77;;;13.70;99.90;;;;;;5076862;28;20471;-59
2023/09/23 06:27:36;;;;;;;16.53;15.03;;;13.70;99.90;;;;;;5080936;28;21154;-59
2023/09/23 06:30:05;;;;;;;17.90;16.00;;;13.70;99.90;;;;;;5069713;28;21068;-59
2023/09/23 06:32:33;;;;;;;16.80;15.00;;;13.70;99.90;;;;;;5076423;28;20481;-60
2023/09/23 06:35:03;;;;;;;18.07;16.27;;;13.70;99.90;;;;;;5080104;28;20472;-59
2023/09/23 06:37:33;;;;;;;18.27;16.47;;;13.70;99.90;;;;;;5072827;28;21044;-58
2023/09/23 06:40:01;;;;;;;16.53;14.90;;;13.60;99.90;;;;;;5073816;28;20469;-59
2023/09/23 06:42:29;;;;;;;15.97;14.37;;;13.60;99.90;;;;;;5076090;28;20476;-59
2023/09/23 06:44:58;;;;;;;15.03;13.63;;;13.70;99.90;;;;;;5078305;28;20954;-59
2023/09/23 06:47:27;;;;;;;16.10;13.93;;;13.70;99.90;;;;;;5075174;28;20485;-59
2023/09/23 06:49:55;;;;;;;14.23;12.73;;;13.70;99.90;;;;;;5074023;28;20484;-59
2023/09/23 06:52:23;;;;;;;14.40;13.10;;;13.70;99.90;;;;;;5074159;28;20495;-59
2023/09/23 06:54:52;;;;;;;11.93;10.83;;;13.70;99.90;;;;;;5077452;28;20473;-58
2023/09/23 06:57:20;;;;;;;10.20;9.30;;;13.70;99.90;;;;;;5073310;28;20492;-59
2023/09/23 06:59:49;;;;;;;11.13;9.60;;;13.70;99.90;;;;;;5065273;28;20492;-60
2023/09/23 07:02:17;;;;;;;11.30;10.30;;;13.70;99.90;;;;;;5079368;28;20579;-58
2023/09/23 07:04:45;;;;;;;10.43;9.47;;;13.70;99.90;;;;;;5060239;28;20469;-59
2023/09/23 07:07:13;;;;;;;9.30;8.50;;;13.70;99.90;;;;;;5071815;28;20961;-59
2023/09/23 07:09:41;;;;;;;11.33;8.70;;;13.70;99.90;;;;;;5079061;28;20585;-58
2023/09/23 07:12:12;;;;;;;9.07;8.27;;;13.70;99.90;;;;;;5079584;28;20519;-59
2023/09/23 07:14:41;;;;;;;7.60;6.90;;;13.70;99.90;;;;;;5078788;28;20465;-59
2023/09/23 07:17:09;;;;;;;8.00;7.27;;;13.80;99.90;;;;;;5084227;28;21068;-59
2023/09/23 07:19:37;;;;;;;7.90;7.20;;;13.70;99.90;;;;;;5070892;28;20958;-59
2023/09/23 07:22:05;;;;;;;7.43;6.83;;;13.70;99.90;;;;;;5071743;28;20496;-59
2023/09/23 07:24:35;;;;;;;7.93;7.23;;;13.70;99.90;;;;;;5077719;28;20988;-58
2023/09/23 07:27:03;;;;;;;7.07;6.50;;;13.70;99.90;;;;;;5079648;28;20580;-59
2023/09/23 07:29:33;;;;;;;8.13;7.40;;;13.80;99.90;;;;;;5080265;28;20474;-59
2023/09/23 07:32:01;;;;;;;7.17;6.47;;;13.80;99.90;;;;;;5077791;28;20549;-58
2023/09/23 07:34:29;;;;;;;5.73;5.10;;;13.90;99.90;;;;;;5078205;28;20476;-58
2023/09/23 07:36:57;;;;;;;6.17;5.67;;;14.00;99.90;;;;;;5072080;28;20508;-59
2023/09/23 07:39:25;;;;;;;5.47;5.00;;;14.00;99.90;;;;;;5077577;28;20578;-58
2023/09/23 07:41:54;;;;;;;6.10;5.60;;;14.10;99.90;;;;;;5073284;28;20728;-61
2023/09/23 07:44:22;;;;;;;6.50;5.90;;;14.20;99.90;;;;;;5076036;28;20560;-58
2023/09/23 07:46:52;;;;;;;5.77;5.27;;;14.20;99.90;;;;;;5072932;28;20504;-59
2023/09/23 07:49:20;;;;;;;5.00;4.57;;;14.20;99.90;;;;;;5076926;28;20487;-59
2023/09/23 07:51:48;;;;;;;4.90;4.40;;;14.20;99.90;;;;;;5076274;28;20520;-57
2023/09/23 07:54:16;;;;;;;4.37;4.03;;;14.30;99.90;;;;;;5078703;28;20557;-58
2023/09/23 07:56:44;;;;;;;4.93;4.43;;;14.30;99.90;;;;;;5079803;28;20491;-59
2023/09/23 07:59:12;;;;;;;4.50;3.73;;;14.30;99.90;;;;;;5079047;28;20586;-58
2023/09/23 08:01:40;;;;;;;4.37;4.07;;;14.40;99.90;;;;;;5069934;28;20529;-63
2023/09/23 08:04:10;;;;;;;3.93;3.50;;;14.40;99.90;;;;;;5072509;28;20613;-58
2023/09/23 08:06:38;;;;;;;4.53;4.03;;;14.40;99.90;;;;;;5078216;28;20491;-59
2023/09/23 08:09:06;;;;;;;4.10;3.80;;;14.40;99.90;;;;;;5079006;28;20548;-58
2023/09/23 08:11:34;;;;;;;4.47;4.07;;;14.40;99.90;;;;;;5074850;28;21065;-58
2023/09/23 08:14:02;;;;;;;4.33;4.03;;;14.40;99.90;;;;;;5080826;28;20559;-59
2023/09/23 08:16:30;;;;;;;3.90;3.60;;;14.50;99.90;;;;;;5077856;28;21009;-58
2023/09/23 08:18:59;;;;;;;4.20;3.90;;;14.60;99.90;;;;;;5071688;28;20493;-59
2023/09/23 08:21:29;;;;;;;4.03;3.73;;;14.70;99.90;;;;;;5069123;28;21092;-58
2023/09/23 08:23:57;;;;;;;3.90;3.50;;;14.70;99.90;;;;;;5073899;28;20516;-58
2023/09/23 08:26:25;;;;;;;3.20;3.00;;;14.70;99.90;;;;;;5073018;28;20572;-57
2023/09/23 08:28:54;;;;;;;3.53;3.20;;;14.70;99.90;;;;;;5075812;28;20527;-58
2023/09/23 08:31:22;;;;;;;3.10;2.90;;;14.70;99.90;;;;;;5077916;28;20484;-59
2023/09/23 08:33:50;;;;;;;4.20;3.23;;;14.70;99.90;;;;;;5077237;28;21099;-58
2023/09/23 08:36:18;;;;;;;3.53;3.23;;;14.80;99.90;;;;;;5070191;28;20858;-58
2023/09/23 08:38:47;;;;;;;3.30;3.03;;;14.90;99.90;;;;;;5074534;28;20571;-59
2023/09/23 08:41:16;;;;;;;3.10;2.80;;;15.00;99.90;;;;;;5074659;28;20497;-57
2023/09/23 08:43:45;;;;;;;3.37;2.80;;;15.00;99.90;;;;;;5069324;28;20472;-58
2023/09/23 08:46:15;;;;;;;3.50;3.20;;;15.00;99.90;;;;;;5068122;28;20504;-58
2023/09/23 08:48:44;;;;;;;3.63;3.33;;;15.00;99.90;;;;;;5068408;28;20516;-58
2023/09/23 08:51:14;;;;;;;4.17;3.80;;;15.00;99.90;;;;;;5065648;28;20666;-58
2023/09/23 08:53:45;;;;;;;4.13;3.67;;;14.90;99.90;;;;;;5071021;28;20475;-58
2023/09/23 08:56:14;;;;;;;4.33;4.03;;;15.00;99.90;;;;;;5070393;28;20517;-59
2023/09/23 08:58:44;;;;;;;5.23;4.33;;;15.00;99.90;;;;;;5070099;28;20476;-60
2023/09/23 09:01:12;;;;;;;4.93;4.53;;;15.10;99.90;;;;;;5074831;28;20530;-60
2023/09/23 09:03:41;;;;;;;5.63;5.03;;;15.10;99.90;;;;;;5077224;28;20791;-59
2023/09/23 09:06:17;;;;;;;6.60;6.00;;;15.10;99.90;;;;;;5077545;28;20580;-58
2023/09/23 09:08:45;;;;;;;6.50;5.90;;;15.10;99.90;;;;;;5068007;28;21266;-58
2023/09/23 09:11:23;;;;;;;6.13;5.63;;;15.20;99.90;;;;;;5079804;28;20568;-58
2023/09/23 09:13:51;;;;;;;5.40;5.00;;;15.20;99.90;;;;;;5082598;28;20504;-57
2023/09/23 09:16:20;;;;;;;6.13;5.63;;;15.30;99.90;;;;;;5079482;28;20553;-58
2023/09/23 09:18:51;;;;;;;5.43;5.03;;;15.40;99.90;;;;;;5077035;28;20486;-58
2023/09/23 09:21:20;;;;;;;7.50;6.90;;;15.40;99.90;;;;;;5079206;28;20472;-58
2023/09/23 09:23:48;;;;;;;6.27;5.77;;;15.40;99.90;;;;;;5077249;28;20472;-58
2023/09/23 09:26:18;;;;;;;5.97;5.57;;;15.40;99.90;;;;;;5079023;28;20545;-57
2023/09/23 09:28:47;;;;;;;6.43;5.87;;;15.40;99.90;;;;;;5077985;28;20860;-59
2023/09/23 09:31:17;;;;;;;5.60;5.20;;;15.40;99.90;;;;;;5078041;28;20480;-57
2023/09/23 09:33:47;;;;;;;5.83;5.33;;;15.40;99.90;;;;;;5080082;28;20481;-58
2023/09/23 09:36:18;;;;;;;5.50;5.00;;;15.30;99.90;;;;;;5080618;28;20493;-56
2023/09/23 09:38:50;;;;;;;5.60;5.10;;;15.30;99.90;;;;;;5076690;28;21536;-58
2023/09/23 09:41:23;;;;;;;6.30;5.80;;;15.30;99.90;;;;;;5077955;28;20476;-58
2023/09/23 09:43:52;;;;;;;4.77;4.37;;;15.40;99.90;;;;;;5077079;28;20539;-58
2023/09/23 09:46:21;;;;;;;4.57;4.27;;;15.40;99.90;;;;;;5079056;28;21030;-58
2023/09/23 09:48:50;;;;;;;4.90;4.50;;;15.50;99.90;;;;;;5075831;28;20472;-57
2023/09/23 09:51:23;;;;;;;4.37;4.07;;;15.50;99.90;;;;;;5078371;28;20588;-58
2023/09/23 09:53:52;;;;;;;4.23;3.93;;;15.50;99.90;;;;;;5077273;28;20978;-57
2023/09/23 09:56:20;;;;;;;4.30;3.97;;;15.50;99.90;;;;;;5055731;28;20489;-57
2023/09/23 09:58:49;;;;;;;4.50;4.07;;;15.60;99.90;;;;;;5060553;28;20476;-57
2023/09/23 10:01:18;;;;;;;3.93;3.73;;;15.50;99.90;;;;;;5058515;28;20488;-57
2023/09/23 10:03:49;;;;;;;3.83;3.50;;;15.60;99.90;;;;;;5069619;28;20473;-57
2023/09/23 10:06:19;;;;;;;3.60;3.40;;;15.60;99.90;;;;;;5065259;28;20492;-58
2023/09/23 10:08:48;;;;;;;4.13;3.83;;;15.60;99.90;;;;;;5056734;28;20473;-57
2023/09/23 10:11:17;;;;;;;3.93;3.60;;;15.70;99.90;;;;;;5060825;28;21075;-57
2023/09/23 10:13:46;;;;;;;3.50;3.30;;;15.80;99.90;;;;;;5056189;28;20606;-56
2023/09/23 10:16:17;;;;;;;4.27;2.93;;;15.90;99.90;;;;;;5063494;28;20505;-57
2023/09/23 10:18:55;;;;;;;3.43;3.23;;;16.00;99.90;;;;;;5067265;28;20476;-56
2023/09/23 10:21:24;;;;;;;3.83;3.53;;;16.20;99.90;;;;;;5060119;28;21027;-56
2023/09/23 10:23:53;;;;;;;3.87;3.30;;;16.10;99.90;;;;;;5057457;28;20567;-56
2023/09/23 10:26:23;;;;;;;3.53;3.23;;;16.20;99.90;;;;;;5057573;28;20488;-59
2023/09/23 10:28:58;;;;;;;4.17;3.87;;;16.20;99.90;;;;;;5058169;28;20946;-59
2023/09/23 10:31:27;;;;;;;4.23;3.93;;;16.40;99.90;;;;;;5058871;28;20983;-59
2023/09/23 10:33:56;;;;;;;4.13;3.70;;;16.40;99.90;;;;;;5059787;28;20456;-57
2023/09/23 10:36:26;;;;;;;4.00;3.70;;;16.50;99.90;;;;;;5057475;28;20586;-58
2023/09/23 10:38:55;;;;;;;4.63;4.00;;;16.50;99.90;;;;;;5058780;28;20530;-56
2023/09/23 10:41:32;;;;;;;4.90;4.60;;;16.60;99.90;;;;;;5058995;28;20492;-57
2023/09/23 10:44:00;;;;;;;5.60;5.20;;;16.60;99.90;;;;;;5071317;28;20552;-57
2023/09/23 10:46:28;;;;;;;5.87;5.37;;;16.50;99.90;;;;;;5069858;28;20503;-57
2023/09/23 10:48:59;;;;;;;5.57;5.17;;;16.50;99.90;;;;;;5069609;28;20476;-61
2023/09/23 10:51:28;;;;;;;9.73;5.87;;;16.50;99.90;;;;;;5071389;28;20538;-61
2023/09/23 10:53:57;;;;;;;5.90;5.40;;;16.60;99.90;;;;;;5072287;28;20526;-60
2023/09/23 10:56:26;;;;;;;5.50;4.73;;;16.70;99.90;;;;;;5068844;28;20562;-62
2023/09/23 10:58:55;;;;;;;5.27;4.87;;;16.80;99.90;;;;;;5071433;28;20559;-60
2023/09/23 11:01:23;;;;;;;5.90;5.50;;;16.90;99.90;;;;;;5068673;28;21027;-62
2023/09/23 11:03:54;;;;;;;5.80;5.30;;;17.00;99.90;;;;;;5070695;28;20473;-64
2023/09/23 11:06:24;;;;;;;5.57;5.17;;;17.10;99.90;;;;;;5071654;28;20942;-59
2023/09/23 11:08:52;;;;;;;6.27;5.67;;;17.20;99.90;;;;;;5072404;28;20546;-62
2023/09/23 11:11:20;;;;;;;5.97;5.57;;;17.30;99.90;;;;;;5068867;28;20476;-61
2023/09/23 11:13:50;;;;;;;6.30;5.90;;;17.40;99.90;;;;;;5070926;28;20491;-60
2023/09/23 11:16:18;;;;;;;5.97;5.60;;;17.60;99.90;;;;;;5072027;28;20599;-60
2023/09/23 11:18:47;;;;;;;6.00;5.60;;;17.80;99.90;;;;;;5069204;28;20721;-62
2023/09/23 11:21:16;;;;;;;5.80;5.27;;;18.00;99.90;;;;;;5068700;28;20494;-64
2023/09/23 11:23:45;;;;;;;6.20;5.70;;;18.10;99.90;;;;;;5070541;28;20840;-62
2023/09/23 11:26:14;;;;;;;5.63;5.27;;;18.30;99.90;;;;;;5070541;28;20583;-62
2023/09/23 11:28:42;;;;;;;6.50;6.10;;;18.40;99.90;;;;;;5069887;28;20468;-60
2023/09/23 11:31:10;;;;;;;6.13;5.73;;;18.50;99.90;;;;;;5065648;28;21123;-60
2023/09/23 11:33:38;;;;;;;6.27;5.87;;;18.60;99.90;;;;;;5059045;28;20580;-64
2023/09/23 11:36:06;;;;;;;7.70;7.10;;;18.60;99.90;;;;;;5058782;28;21126;-63
2023/09/23 11:38:34;;;;;;;7.50;6.90;;;18.50;99.90;;;;;;5056479;28;20496;-66
2023/09/23 11:41:04;;;;;;;7.50;7.00;;;18.50;99.90;;;;;;5057517;28;20500;-68
2023/09/23 11:43:32;;;;;;;6.27;5.87;;;18.40;99.90;;;;;;5070393;28;20529;-67
2023/09/23 11:46:00;;;;;;;6.70;6.20;;;18.30;99.90;;;;;;5062309;28;20477;-66
2023/09/23 11:48:28;;;;;;;6.43;6.03;;;18.20;99.90;;;;;;5061129;28;20468;-61
2023/09/23 11:50:56;;;;;;;6.33;5.93;;;18.20;99.90;;;;;;5067706;28;21038;-61
2023/09/23 11:53:25;;;;;;;6.73;6.23;;;18.10;99.90;;;;;;5065691;28;20488;-63
2023/09/23 11:55:53;;;;;;;6.43;6.03;;;18.00;99.90;;;;;;5066664;28;21007;-65
2023/09/23 11:58:23;;;;;;;6.10;5.60;;;17.90;99.90;;;;;;5068912;28;20476;-65
2023/09/23 12:00:51;;;;;;;7.00;6.20;;;17.90;99.90;;;;;;5069676;28;20996;-67
2023/09/23 12:03:19;;;;;;;7.70;7.10;;;17.90;99.90;;;;;;5073973;28;20982;-64
2023/09/23 12:05:50;;;;;;;6.57;6.07;;;17.80;99.90;;;;;;5073793;28;20468;-67
2023/09/23 12:08:21;;;;;;;6.37;5.90;;;17.80;99.90;;;;;;5072485;28;20472;-66
2023/09/23 12:10:49;;;;;;;7.30;6.80;;;17.70;99.90;;;;;;5070593;28;20860;-67
2023/09/23 12:13:18;;;;;;;7.00;6.50;;;17.70;99.90;;;;;;5072908;28;20762;-65
2023/09/23 12:15:47;;;;;;;7.73;7.13;;;17.70;99.90;;;;;;5066704;28;20471;-64
2023/09/23 12:18:16;;;;;;;7.37;6.77;;;17.80;99.90;;;;;;5070598;28;20483;-64
2023/09/23 12:20:44;;;;;;;7.40;6.80;;;17.80;99.90;;;;;;5072688;28;20522;-65
2023/09/23 12:23:15;;;;;;;8.57;7.77;;;17.80;99.90;;;;;;5067048;28;20493;-65
2023/09/23 12:25:44;;;;;;;7.90;7.33;;;17.80;99.90;;;;;;5069782;28;20501;-68
2023/09/23 12:28:12;;;;;;;7.03;6.53;;;17.80;99.90;;;;;;5060631;28;20650;-66
2023/09/23 12:30:40;;;;;;;8.17;7.50;;;17.70;99.90;;;;;;5070262;28;20600;-64
2023/09/23 12:33:09;;;;;;;8.50;7.90;;;17.60;99.90;;;;;;5061600;28;20539;-62
2023/09/23 12:35:40;;;;;;;8.63;7.93;;;17.50;99.90;;;;;;5065018;28;20977;-61
2023/09/23 12:38:10;;;;;;;9.33;8.53;;;17.50;99.90;;;;;;5063933;28;20469;-61
2023/09/23 12:40:38;;;;;;;9.27;8.57;;;17.40;99.90;;;;;;5062690;28;21140;-61
2023/09/23 12:43:06;;;;;;;8.03;7.43;;;17.90;99.90;;;;;;5066517;28;20484;-62
2023/09/23 12:45:34;;;;;;;7.47;6.87;;;18.40;99.90;;;;;;5069535;28;20460;-62
2023/09/23 12:48:03;;;;;;;7.43;6.83;;;18.90;99.90;;;;;;5063869;28;20468;-63
2023/09/23 12:50:32;;;;;;;7.60;7.00;;;19.30;99.90;;;;;;5066640;28;20472;-63